Search for the current weather situation

Metar

Metar
TNCB 210955Z AUTO 07018KT 9999 // FEW000/// SCT005/// BKN010/// 22/21 Q1016 RE//
Decoded Metar

TAF

TAF
TNCB 210955Z AUTO 07018KT 9999 // FEW000/// SCT005/// BKN010/// 22/21 Q1016 RE//
Decoded TAF
Top